createdAt,value
2019-05-02T00:09:33.475Z,27.47
2019-05-02T00:19:37.629Z,24.80
2019-05-02T00:29:42.215Z,26.33
2019-05-02T00:39:49.185Z,23.03
2019-05-02T00:49:53.029Z,21.10
2019-05-02T00:59:57.543Z,20.93
2019-05-02T01:10:02.295Z,20.37
2019-05-02T01:20:08.351Z,19.07
2019-05-02T01:30:31.270Z,18.00
2019-05-02T01:40:35.886Z,17.27
2019-05-02T01:50:40.332Z,16.13
2019-05-02T02:00:45.972Z,17.87
2019-05-02T02:10:56.448Z,19.00
2019-05-02T02:21:02.683Z,17.63
2019-05-02T02:31:08.210Z,16.93
2019-05-02T02:41:14.790Z,17.53
2019-05-02T02:51:23.586Z,16.63
2019-05-02T03:01:28.677Z,16.80
2019-05-02T03:11:34.251Z,13.67
2019-05-02T03:21:40.595Z,14.83
2019-05-02T03:31:45.483Z,13.47
2019-05-02T03:41:55.435Z,14.47
2019-05-02T03:52:03.128Z,15.67
2019-05-02T04:02:03.190Z,17.20
2019-05-02T04:12:18.521Z,17.47
2019-05-02T04:22:15.575Z,18.80
2019-05-02T04:32:20.207Z,19.13
2019-05-02T04:42:24.709Z,17.27
2019-05-02T04:52:29.263Z,17.37
2019-05-02T05:02:36.525Z,19.77
2019-05-02T05:12:41.814Z,19.07
2019-05-02T05:22:47.908Z,12.43
2019-05-02T05:32:52.523Z,12.33
2019-05-02T05:42:57.432Z,20.30
2019-05-02T05:53:01.897Z,15.33
2019-05-02T06:03:13.024Z,18.13
2019-05-02T06:13:12.933Z,17.77
2019-05-02T06:23:17.483Z,17.40
2019-05-02T06:33:25.917Z,14.67
2019-05-02T06:43:29.155Z,20.43
2019-05-02T06:53:35.182Z,23.37
2019-05-02T07:03:41.245Z,18.67
2019-05-02T07:13:47.065Z,21.77
2019-05-02T07:23:53.759Z,19.73
2019-05-02T07:33:57.790Z,14.90
2019-05-02T07:44:04.394Z,23.13
2019-05-02T07:54:08.517Z,15.90
2019-05-02T08:04:13.082Z,16.30
2019-05-02T08:14:18.643Z,20.57
2019-05-02T08:24:23.128Z,16.40
2019-05-02T08:34:33.578Z,13.23
2019-05-02T08:44:50.327Z,10.30
2019-05-02T08:54:44.506Z,16.30
2019-05-02T09:04:58.229Z,12.37
2019-05-02T09:14:55.659Z,13.43
2019-05-02T09:25:02.130Z,13.87
2019-05-02T09:35:07.031Z,17.50
2019-05-02T09:45:16.689Z,13.87
2019-05-02T09:55:22.624Z,15.63
2019-05-02T10:05:27.609Z,16.63
2019-05-02T10:15:32.802Z,16.80
2019-05-02T10:25:38.842Z,11.93
2019-05-02T10:35:45.608Z,15.17
2019-05-02T10:45:56.603Z,17.43
2019-05-02T10:56:02.668Z,12.93
2019-05-02T11:06:08.913Z,8.90
2019-05-02T11:16:24.085Z,11.70
2019-05-02T11:26:29.073Z,11.23
2019-05-02T11:36:33.682Z,5.63
2019-05-02T11:46:42.892Z,5.27
2019-05-02T11:56:49.226Z,4.47
2019-05-02T12:07:00.972Z,4.60
2019-05-02T12:16:59.299Z,8.37
2019-05-02T12:27:05.007Z,9.20
2019-05-02T12:37:09.624Z,6.90
2019-05-02T12:47:15.249Z,6.63
2019-05-02T12:57:21.895Z,7.37
2019-05-02T13:07:26.089Z,5.83
2019-05-02T13:17:35.646Z,6.47
2019-05-02T13:27:44.400Z,7.20
2019-05-02T13:37:45.834Z,7.35
2019-05-02T13:47:51.959Z,7.67
2019-05-02T13:57:56.610Z,9.03
2019-05-02T14:08:15.926Z,7.92
2019-05-02T14:18:21.952Z,8.77
2019-05-02T14:28:26.997Z,9.55
2019-05-02T14:38:33.095Z,8.03
2019-05-02T14:48:45.078Z,9.33
2019-05-02T14:58:47.691Z,10.05
2019-05-02T15:08:52.660Z,9.23
2019-05-02T15:18:57.261Z,8.93
2019-05-02T15:29:01.956Z,9.73
2019-05-02T15:49:16.465Z,8.70
2019-05-02T15:59:37.482Z,8.07
2019-05-02T16:09:39.161Z,9.10
2019-05-02T16:19:45.268Z,7.50
2019-05-02T16:29:49.768Z,7.83
2019-05-02T16:39:54.414Z,8.07
2019-05-02T16:49:58.882Z,8.17
2019-05-02T17:00:06.376Z,7.67
2019-05-02T17:10:19.848Z,7.42
2019-05-02T17:20:24.407Z,7.93
2019-05-02T17:30:33.346Z,7.60
2019-05-02T17:40:36.200Z,9.00
2019-05-02T17:51:02.182Z,9.40
2019-05-02T18:01:08.847Z,10.10
2019-05-02T18:11:13.432Z,10.43
2019-05-02T18:21:24.719Z,11.43
2019-05-02T18:31:25.339Z,12.60
2019-05-02T18:41:31.767Z,12.97
2019-05-02T18:51:36.316Z,12.33
2019-05-02T19:01:42.664Z,13.20
2019-05-02T19:11:47.337Z,15.70
2019-05-02T19:21:51.807Z,13.67
2019-05-02T19:31:56.912Z,11.47
2019-05-02T19:42:01.877Z,13.23
2019-05-02T19:52:06.772Z,14.27
2019-05-02T20:02:11.999Z,16.93
2019-05-02T20:12:17.315Z,14.00
2019-05-02T20:22:23.422Z,14.10
2019-05-02T20:32:27.999Z,13.37
2019-05-02T20:42:32.851Z,17.27
2019-05-02T20:52:37.354Z,16.30
2019-05-02T21:02:42.467Z,14.70
2019-05-02T21:12:47.120Z,16.13
2019-05-02T21:22:53.000Z,11.93
2019-05-02T21:32:57.815Z,14.27
2019-05-02T21:43:02.548Z,15.83
2019-05-02T21:53:14.399Z,17.27
2019-05-02T22:03:19.411Z,19.20
2019-05-02T22:13:23.987Z,19.57
2019-05-02T22:23:33.668Z,24.43
2019-05-02T22:33:35.770Z,27.17
2019-05-02T22:43:42.162Z,24.23
2019-05-02T22:53:46.702Z,23.63
2019-05-02T23:03:52.477Z,21.77
2019-05-02T23:13:57.079Z,23.97
2019-05-02T23:24:09.084Z,21.17
2019-05-02T23:34:13.691Z,21.07
2019-05-02T23:44:18.129Z,20.73
2019-05-02T23:54:22.718Z,20.67
